sensor_id;sensor_type;location;lat;lon;timestamp;pressure;altitude;pressure_sealevel;temperature;humidity
42411;BME280;28056;51.112;0.984;2022-09-21T00:00:21;101779.09;;;16.80;42.12
42411;BME280;28056;51.112;0.984;2022-09-21T00:04:47;101776.68;;;16.19;42.30
42411;BME280;28056;51.112;0.984;2022-09-21T00:07:15;101773.12;;;16.34;41.80
42411;BME280;28056;51.112;0.984;2022-09-21T00:09:43;101773.65;;;16.16;42.25
42411;BME280;28056;51.112;0.984;2022-09-21T00:12:10;101772.60;;;16.21;41.90
42411;BME280;28056;51.112;0.984;2022-09-21T00:14:38;101772.81;;;16.40;42.06
42411;BME280;28056;51.112;0.984;2022-09-21T00:17:06;101773.20;;;16.41;41.72
42411;BME280;28056;51.112;0.984;2022-09-21T00:19:34;101774.62;;;16.36;41.45
42411;BME280;28056;51.112;0.984;2022-09-21T00:22:01;101774.66;;;16.33;42.72
42411;BME280;28056;51.112;0.984;2022-09-21T00:24:28;101773.79;;;16.41;42.00
42411;BME280;28056;51.112;0.984;2022-09-21T00:26:56;101774.45;;;16.59;41.93
42411;BME280;28056;51.112;0.984;2022-09-21T00:29:24;101770.98;;;16.28;42.26
42411;BME280;28056;51.112;0.984;2022-09-21T00:31:52;101771.86;;;16.27;42.18
42411;BME280;28056;51.112;0.984;2022-09-21T00:34:20;101768.76;;;16.27;42.06
42411;BME280;28056;51.112;0.984;2022-09-21T00:36:47;101770.74;;;16.32;42.09
42411;BME280;28056;51.112;0.984;2022-09-21T00:39:14;101769.62;;;16.36;42.20
42411;BME280;28056;51.112;0.984;2022-09-21T00:41:42;101771.60;;;16.42;42.00
42411;BME280;28056;51.112;0.984;2022-09-21T00:44:42;101771.90;;;16.50;41.99
42411;BME280;28056;51.112;0.984;2022-09-21T00:47:12;101772.76;;;16.60;41.80
42411;BME280;28056;51.112;0.984;2022-09-21T00:49:43;101771.34;;;16.48;41.50
42411;BME280;28056;51.112;0.984;2022-09-21T00:52:11;101772.73;;;16.70;41.34
42411;BME280;28056;51.112;0.984;2022-09-21T00:54:42;101774.39;;;16.75;41.07
42411;BME280;28056;51.112;0.984;2022-09-21T00:57:11;101775.41;;;16.79;41.15
42411;BME280;28056;51.112;0.984;2022-09-21T00:59:42;101775.95;;;16.82;41.11
42411;BME280;28056;51.112;0.984;2022-09-21T01:02:11;101774.82;;;16.71;41.36
42411;BME280;28056;51.112;0.984;2022-09-21T01:04:38;101775.56;;;16.49;40.99
42411;BME280;28056;51.112;0.984;2022-09-21T01:07:09;101774.57;;;16.63;41.00
42411;BME280;28056;51.112;0.984;2022-09-21T01:09:38;101774.43;;;16.57;41.31
42411;BME280;28056;51.112;0.984;2022-09-21T01:12:21;101774.70;;;16.38;41.29
42411;BME280;28056;51.112;0.984;2022-09-21T01:15:00;101775.52;;;16.12;41.30
42411;BME280;28056;51.112;0.984;2022-09-21T01:17:37;101777.34;;;16.57;41.17
42411;BME280;28056;51.112;0.984;2022-09-21T01:20:28;101774.49;;;16.55;41.17
42411;BME280;28056;51.112;0.984;2022-09-21T01:23:12;101773.13;;;16.13;41.47
42411;BME280;28056;51.112;0.984;2022-09-21T01:25:54;101772.89;;;16.21;41.77
42411;BME280;28056;51.112;0.984;2022-09-21T01:28:33;101772.33;;;16.33;41.52
42411;BME280;28056;51.112;0.984;2022-09-21T01:31:06;101766.67;;;16.23;42.33
42411;BME280;28056;51.112;0.984;2022-09-21T01:33:41;101766.63;;;16.56;41.66
42411;BME280;28056;51.112;0.984;2022-09-21T01:36:14;101767.99;;;16.15;41.69
42411;BME280;28056;51.112;0.984;2022-09-21T01:38:47;101770.39;;;16.22;41.48
42411;BME280;28056;51.112;0.984;2022-09-21T01:41:20;101769.55;;;16.37;41.45
42411;BME280;28056;51.112;0.984;2022-09-21T01:43:52;101768.79;;;15.96;42.00
42411;BME280;28056;51.112;0.984;2022-09-21T01:46:24;101773.76;;;16.05;41.86
42411;BME280;28056;51.112;0.984;2022-09-21T01:48:57;101770.04;;;15.90;42.10
42411;BME280;28056;51.112;0.984;2022-09-21T01:51:27;101765.89;;;15.73;42.54
42411;BME280;28056;51.112;0.984;2022-09-21T01:53:57;101765.42;;;15.36;43.02
42411;BME280;28056;51.112;0.984;2022-09-21T01:56:34;101763.98;;;15.77;42.32
42411;BME280;28056;51.112;0.984;2022-09-21T01:59:08;101763.34;;;15.97;42.07
42411;BME280;28056;51.112;0.984;2022-09-21T02:01:42;101762.82;;;15.91;42.20
42411;BME280;28056;51.112;0.984;2022-09-21T02:04:12;101761.27;;;15.58;42.36
42411;BME280;28056;51.112;0.984;2022-09-21T02:06:43;101763.57;;;15.57;42.77
42411;BME280;28056;51.112;0.984;2022-09-21T02:09:12;101760.84;;;15.40;43.18
42411;BME280;28056;51.112;0.984;2022-09-21T02:11:40;101760.31;;;15.23;43.23
42411;BME280;28056;51.112;0.984;2022-09-21T02:14:09;101761.91;;;15.54;42.89
42411;BME280;28056;51.112;0.984;2022-09-21T02:16:40;101765.09;;;15.43;42.86
42411;BME280;28056;51.112;0.984;2022-09-21T02:19:14;101764.79;;;15.47;42.52
42411;BME280;28056;51.112;0.984;2022-09-21T02:21:52;101759.78;;;15.68;42.32
42411;BME280;28056;51.112;0.984;2022-09-21T02:24:27;101760.49;;;15.69;42.31
42411;BME280;28056;51.112;0.984;2022-09-21T02:27:03;101760.90;;;15.29;42.52
42411;BME280;28056;51.112;0.984;2022-09-21T02:29:39;101761.73;;;15.22;42.87
42411;BME280;28056;51.112;0.984;2022-09-21T02:32:17;101759.87;;;15.25;43.20
42411;BME280;28056;51.112;0.984;2022-09-21T02:34:52;101760.68;;;14.95;43.43
42411;BME280;28056;51.112;0.984;2022-09-21T02:37:31;101759.81;;;14.89;43.15
42411;BME280;28056;51.112;0.984;2022-09-21T02:40:08;101758.96;;;15.10;43.48
42411;BME280;28056;51.112;0.984;2022-09-21T02:42:41;101758.08;;;14.97;43.86
42411;BME280;28056;51.112;0.984;2022-09-21T02:45:14;101758.30;;;14.90;43.82
42411;BME280;28056;51.112;0.984;2022-09-21T02:47:49;101755.67;;;14.80;43.83
42411;BME280;28056;51.112;0.984;2022-09-21T02:50:21;101754.09;;;14.72;44.30
42411;BME280;28056;51.112;0.984;2022-09-21T02:52:51;101751.03;;;14.69;44.82
42411;BME280;28056;51.112;0.984;2022-09-21T02:55:22;101750.10;;;14.61;44.31
42411;BME280;28056;51.112;0.984;2022-09-21T02:57:49;101749.03;;;14.92;44.10
42411;BME280;28056;51.112;0.984;2022-09-21T03:00:18;101748.14;;;14.67;44.25
42411;BME280;28056;51.112;0.984;2022-09-21T03:02:46;101750.75;;;14.67;44.47
42411;BME280;28056;51.112;0.984;2022-09-21T03:05:14;101751.60;;;14.80;44.17
42411;BME280;28056;51.112;0.984;2022-09-21T03:07:41;101753.91;;;14.25;45.21
42411;BME280;28056;51.112;0.984;2022-09-21T03:10:09;101756.82;;;13.21;47.03
42411;BME280;28056;51.112;0.984;2022-09-21T03:12:37;101755.25;;;12.59;48.34
42411;BME280;28056;51.112;0.984;2022-09-21T03:15:05;101755.33;;;11.99;50.73
42411;BME280;28056;51.112;0.984;2022-09-21T03:17:33;101756.51;;;13.12;49.01
42411;BME280;28056;51.112;0.984;2022-09-21T03:20:01;101755.38;;;13.66;47.36
42411;BME280;28056;51.112;0.984;2022-09-21T03:22:28;101758.22;;;13.69;47.36
42411;BME280;28056;51.112;0.984;2022-09-21T03:25:48;101761.23;;;13.86;46.78
42411;BME280;28056;51.112;0.984;2022-09-21T03:28:16;101757.03;;;13.88;46.43
42411;BME280;28056;51.112;0.984;2022-09-21T03:30:43;101762.11;;;13.95;46.79
42411;BME280;28056;51.112;0.984;2022-09-21T03:33:11;101758.57;;;14.22;45.86
42411;BME280;28056;51.112;0.984;2022-09-21T03:35:39;101757.89;;;14.39;45.72
42411;BME280;28056;51.112;0.984;2022-09-21T03:38:07;101756.00;;;14.40;45.66
42411;BME280;28056;51.112;0.984;2022-09-21T03:40:34;101754.70;;;14.07;45.92
42411;BME280;28056;51.112;0.984;2022-09-21T03:43:02;101750.74;;;14.34;45.74
42411;BME280;28056;51.112;0.984;2022-09-21T03:45:30;101750.27;;;14.15;45.60
42411;BME280;28056;51.112;0.984;2022-09-21T03:47:59;101750.47;;;14.52;45.22
42411;BME280;28056;51.112;0.984;2022-09-21T03:50:28;101747.65;;;14.03;45.37
42411;BME280;28056;51.112;0.984;2022-09-21T03:52:56;101747.41;;;14.01;45.83
42411;BME280;28056;51.112;0.984;2022-09-21T03:55:24;101746.10;;;13.87;45.76
42411;BME280;28056;51.112;0.984;2022-09-21T03:57:52;101750.48;;;13.32;46.83
42411;BME280;28056;51.112;0.984;2022-09-21T04:00:20;101749.24;;;12.31;49.51
42411;BME280;28056;51.112;0.984;2022-09-21T04:02:47;101741.61;;;12.49;49.20
42411;BME280;28056;51.112;0.984;2022-09-21T04:05:15;101742.08;;;13.63;47.34
42411;BME280;28056;51.112;0.984;2022-09-21T04:07:43;101742.04;;;13.67;47.00
42411;BME280;28056;51.112;0.984;2022-09-21T04:10:13;101741.66;;;13.64;46.84
42411;BME280;28056;51.112;0.984;2022-09-21T04:12:41;101738.41;;;13.92;46.58
42411;BME280;28056;51.112;0.984;2022-09-21T04:15:10;101734.63;;;13.68;46.64
42411;BME280;28056;51.112;0.984;2022-09-21T04:17:37;101734.56;;;13.70;46.22
42411;BME280;28056;51.112;0.984;2022-09-21T04:20:06;101731.17;;;13.78;46.16
42411;BME280;28056;51.112;0.984;2022-09-21T04:22:34;101733.30;;;13.81;45.97
42411;BME280;28056;51.112;0.984;2022-09-21T04:25:02;101737.51;;;14.00;46.14
42411;BME280;28056;51.112;0.984;2022-09-21T04:27:29;101743.81;;;13.48;46.76
42411;BME280;28056;51.112;0.984;2022-09-21T04:29:57;101737.88;;;13.66;46.39
42411;BME280;28056;51.112;0.984;2022-09-21T04:32:25;101739.48;;;13.68;46.39
42411;BME280;28056;51.112;0.984;2022-09-21T04:34:52;101740.86;;;13.94;46.17
42411;BME280;28056;51.112;0.984;2022-09-21T04:37:19;101741.23;;;13.65;46.56
42411;BME280;28056;51.112;0.984;2022-09-21T04:39:46;101740.07;;;13.99;46.23
42411;BME280;28056;51.112;0.984;2022-09-21T04:42:14;101740.22;;;13.81;46.47
42411;BME280;28056;51.112;0.984;2022-09-21T04:44:42;101737.66;;;13.85;46.30
42411;BME280;28056;51.112;0.984;2022-09-21T04:47:09;101737.38;;;14.08;46.09
42411;BME280;28056;51.112;0.984;2022-09-21T04:49:37;101736.28;;;13.74;46.48
42411;BME280;28056;51.112;0.984;2022-09-21T04:52:04;101730.06;;;13.88;46.07
42411;BME280;28056;51.112;0.984;2022-09-21T04:54:32;101728.50;;;13.93;46.05
42411;BME280;28056;51.112;0.984;2022-09-21T04:56:59;101726.45;;;13.88;46.41
42411;BME280;28056;51.112;0.984;2022-09-21T04:59:26;101727.43;;;13.90;46.29
42411;BME280;28056;51.112;0.984;2022-09-21T05:01:54;101726.10;;;13.96;46.29
42411;BME280;28056;51.112;0.984;2022-09-21T05:04:21;101723.09;;;13.98;46.41
42411;BME280;28056;51.112;0.984;2022-09-21T05:06:48;101725.75;;;13.81;47.05
42411;BME280;28056;51.112;0.984;2022-09-21T05:09:16;101729.24;;;12.99;48.55
42411;BME280;28056;51.112;0.984;2022-09-21T05:11:43;101729.04;;;12.88;49.65
42411;BME280;28056;51.112;0.984;2022-09-21T05:14:11;101730.42;;;13.39;47.85
42411;BME280;28056;51.112;0.984;2022-09-21T05:16:38;101727.60;;;13.91;47.36
42411;BME280;28056;51.112;0.984;2022-09-21T05:19:05;101728.42;;;13.61;47.63
42411;BME280;28056;51.112;0.984;2022-09-21T05:21:32;101726.81;;;13.67;47.39
42411;BME280;28056;51.112;0.984;2022-09-21T05:24:00;101726.19;;;12.52;48.74
42411;BME280;28056;51.112;0.984;2022-09-21T05:26:27;101725.18;;;12.34;48.77
42411;BME280;28056;51.112;0.984;2022-09-21T05:28:54;101722.64;;;12.52;48.21
42411;BME280;28056;51.112;0.984;2022-09-21T05:31:32;101724.56;;;12.37;48.10
42411;BME280;28056;51.112;0.984;2022-09-21T05:34:06;101725.28;;;12.45;48.44
42411;BME280;28056;51.112;0.984;2022-09-21T05:36:44;101727.95;;;12.89;47.70
42411;BME280;28056;51.112;0.984;2022-09-21T05:39:13;101725.94;;;13.01;47.72
42411;BME280;28056;51.112;0.984;2022-09-21T05:41:41;101728.38;;;13.35;47.77
42411;BME280;28056;51.112;0.984;2022-09-21T05:44:10;101729.62;;;13.37;47.53
42411;BME280;28056;51.112;0.984;2022-09-21T05:46:39;101731.76;;;13.36;47.11
42411;BME280;28056;51.112;0.984;2022-09-21T05:49:13;101730.83;;;13.68;47.32
42411;BME280;28056;51.112;0.984;2022-09-21T05:51:52;101731.12;;;13.62;47.18
42411;BME280;28056;51.112;0.984;2022-09-21T05:54:35;101730.68;;;13.79;47.30
42411;BME280;28056;51.112;0.984;2022-09-21T05:57:12;101727.94;;;13.62;47.04
42411;BME280;28056;51.112;0.984;2022-09-21T05:59:51;101730.35;;;13.97;47.03
42411;BME280;28056;51.112;0.984;2022-09-21T06:02:31;101732.95;;;13.85;47.77
42411;BME280;28056;51.112;0.984;2022-09-21T06:05:10;101733.48;;;13.77;47.68
42411;BME280;28056;51.112;0.984;2022-09-21T06:07:38;101730.97;;;13.94;47.03
42411;BME280;28056;51.112;0.984;2022-09-21T06:10:06;101730.95;;;14.06;46.92
42411;BME280;28056;51.112;0.984;2022-09-21T06:12:33;101732.37;;;14.09;47.14
42411;BME280;28056;51.112;0.984;2022-09-21T06:15:00;101732.94;;;14.39;47.08
42411;BME280;28056;51.112;0.984;2022-09-21T06:17:27;101736.11;;;13.95;47.88
42411;BME280;28056;51.112;0.984;2022-09-21T06:19:54;101737.86;;;14.09;47.50
42411;BME280;28056;51.112;0.984;2022-09-21T06:22:21;101739.64;;;14.39;47.25
42411;BME280;28056;51.112;0.984;2022-09-21T06:24:49;101743.71;;;14.44;47.25
42411;BME280;28056;51.112;0.984;2022-09-21T06:27:16;101742.84;;;14.51;47.32
42411;BME280;28056;51.112;0.984;2022-09-21T06:29:43;101742.32;;;14.44;47.63
42411;BME280;28056;51.112;0.984;2022-09-21T06:32:11;101743.35;;;14.31;47.74
42411;BME280;28056;51.112;0.984;2022-09-21T06:34:39;101741.11;;;14.19;47.78
42411;BME280;28056;51.112;0.984;2022-09-21T06:37:07;101739.65;;;14.40;48.68
42411;BME280;28056;51.112;0.984;2022-09-21T06:39:34;101741.52;;;14.78;48.57
42411;BME280;28056;51.112;0.984;2022-09-21T06:42:03;101744.52;;;14.72;48.12
42411;BME280;28056;51.112;0.984;2022-09-21T06:44:30;101745.77;;;14.66;48.10
42411;BME280;28056;51.112;0.984;2022-09-21T06:46:58;101745.34;;;14.67;47.97
42411;BME280;28056;51.112;0.984;2022-09-21T06:49:25;101746.50;;;14.93;47.97
42411;BME280;28056;51.112;0.984;2022-09-21T06:51:52;101751.56;;;14.90;47.92
42411;BME280;28056;51.112;0.984;2022-09-21T06:54:20;101756.15;;;14.96;47.84
42411;BME280;28056;51.112;0.984;2022-09-21T06:56:47;101759.78;;;14.78;47.84
42411;BME280;28056;51.112;0.984;2022-09-21T06:59:15;101758.70;;;15.05;47.58
42411;BME280;28056;51.112;0.984;2022-09-21T07:01:42;101761.20;;;15.00;47.16
42411;BME280;28056;51.112;0.984;2022-09-21T07:04:09;101759.48;;;15.29;47.01
42411;BME280;28056;51.112;0.984;2022-09-21T07:06:36;101755.84;;;15.12;47.28
42411;BME280;28056;51.112;0.984;2022-09-21T07:09:03;101754.53;;;14.97;47.40
42411;BME280;28056;51.112;0.984;2022-09-21T07:11:31;101756.10;;;15.52;47.58
42411;BME280;28056;51.112;0.984;2022-09-21T07:13:59;101753.59;;;14.95;48.04
42411;BME280;28056;51.112;0.984;2022-09-21T07:16:27;101756.15;;;15.13;49.03
42411;BME280;28056;51.112;0.984;2022-09-21T07:18:55;101754.02;;;15.27;48.70
42411;BME280;28056;51.112;0.984;2022-09-21T07:21:22;101751.43;;;14.94;48.95
42411;BME280;28056;51.112;0.984;2022-09-21T07:23:49;101752.61;;;15.39;48.63
42411;BME280;28056;51.112;0.984;2022-09-21T07:26:17;101750.20;;;15.57;49.09
42411;BME280;28056;51.112;0.984;2022-09-21T07:28:44;101753.56;;;15.80;48.98
42411;BME280;28056;51.112;0.984;2022-09-21T07:31:13;101758.71;;;15.82;49.07
42411;BME280;28056;51.112;0.984;2022-09-21T07:33:42;101762.45;;;15.78;49.27
42411;BME280;28056;51.112;0.984;2022-09-21T07:36:10;101763.95;;;15.80;50.51
42411;BME280;28056;51.112;0.984;2022-09-21T07:38:40;101762.43;;;16.02;50.65
42411;BME280;28056;51.112;0.984;2022-09-21T07:41:09;101761.75;;;16.07;50.65
42411;BME280;28056;51.112;0.984;2022-09-21T07:43:37;101760.19;;;16.10;50.86
42411;BME280;28056;51.112;0.984;2022-09-21T07:46:05;101757.76;;;16.78;50.54
42411;BME280;28056;51.112;0.984;2022-09-21T07:48:32;101758.44;;;15.62;54.06
42411;BME280;28056;51.112;0.984;2022-09-21T07:51:01;101757.46;;;16.38;52.79
42411;BME280;28056;51.112;0.984;2022-09-21T07:53:29;101758.29;;;16.80;51.74
42411;BME280;28056;51.112;0.984;2022-09-21T07:56:01;101755.92;;;16.68;53.41
42411;BME280;28056;51.112;0.984;2022-09-21T07:58:28;101757.32;;;16.69;53.30
42411;BME280;28056;51.112;0.984;2022-09-21T08:00:57;101757.84;;;17.17;52.25
42411;BME280;28056;51.112;0.984;2022-09-21T08:03:25;101757.01;;;16.32;54.25
42411;BME280;28056;51.112;0.984;2022-09-21T08:05:52;101761.95;;;16.77;52.86
42411;BME280;28056;51.112;0.984;2022-09-21T08:08:20;101761.48;;;17.66;51.50
42411;BME280;28056;51.112;0.984;2022-09-21T08:10:48;101762.42;;;17.57;51.19
42411;BME280;28056;51.112;0.984;2022-09-21T08:13:15;101764.37;;;17.57;50.27
42411;BME280;28056;51.112;0.984;2022-09-21T08:15:42;101763.39;;;17.28;51.66
42411;BME280;28056;51.112;0.984;2022-09-21T08:18:10;101766.34;;;17.79;49.60
42411;BME280;28056;51.112;0.984;2022-09-21T08:20:37;101767.99;;;18.21;48.77
42411;BME280;28056;51.112;0.984;2022-09-21T08:23:05;101768.43;;;17.72;50.26
42411;BME280;28056;51.112;0.984;2022-09-21T08:25:32;101773.95;;;18.17;48.65
42411;BME280;28056;51.112;0.984;2022-09-21T08:28:00;101772.60;;;18.25;47.64
42411;BME280;28056;51.112;0.984;2022-09-21T08:30:27;101774.25;;;18.00;47.92
42411;BME280;28056;51.112;0.984;2022-09-21T08:32:55;101773.56;;;17.96;48.16
42411;BME280;28056;51.112;0.984;2022-09-21T08:35:22;101768.44;;;18.35;47.89
42411;BME280;28056;51.112;0.984;2022-09-21T08:37:53;101769.76;;;18.24;46.97
42411;BME280;28056;51.112;0.984;2022-09-21T08:40:20;101766.89;;;18.51;47.50
42411;BME280;28056;51.112;0.984;2022-09-21T08:42:55;101767.19;;;18.61;46.81
42411;BME280;28056;51.112;0.984;2022-09-21T08:45:32;101769.01;;;19.28;46.10
42411;BME280;28056;51.112;0.984;2022-09-21T08:48:04;101769.75;;;18.93;44.88
42411;BME280;28056;51.112;0.984;2022-09-21T08:50:40;101770.82;;;18.45;46.44
42411;BME280;28056;51.112;0.984;2022-09-21T08:53:12;101773.21;;;18.69;45.38
42411;BME280;28056;51.112;0.984;2022-09-21T08:55:41;101775.11;;;17.83;44.59
42411;BME280;28056;51.112;0.984;2022-09-21T08:58:20;101766.80;;;19.07;44.11
42411;BME280;28056;51.112;0.984;2022-09-21T09:00:52;101766.60;;;20.33;42.11
42411;BME280;28056;51.112;0.984;2022-09-21T09:05:11;101764.79;;;20.46;41.18
42411;BME280;28056;51.112;0.984;2022-09-21T09:08:08;101767.03;;;20.10;41.79
42411;BME280;28056;51.112;0.984;2022-09-21T09:10:44;101766.49;;;20.04;40.92
42411;BME280;28056;51.112;0.984;2022-09-21T09:13:32;101768.36;;;20.23;40.89
42411;BME280;28056;51.112;0.984;2022-09-21T09:16:12;101768.40;;;19.11;44.94
42411;BME280;28056;51.112;0.984;2022-09-21T09:18:44;101766.85;;;19.27;42.57
42411;BME280;28056;51.112;0.984;2022-09-21T09:21:18;101768.51;;;19.76;41.59
42411;BME280;28056;51.112;0.984;2022-09-21T09:23:49;101772.84;;;20.38;39.87
42411;BME280;28056;51.112;0.984;2022-09-21T09:26:21;101771.83;;;20.88;38.62
42411;BME280;28056;51.112;0.984;2022-09-21T09:28:54;101772.79;;;21.31;35.35
42411;BME280;28056;51.112;0.984;2022-09-21T09:31:29;101771.90;;;20.90;38.20
42411;BME280;28056;51.112;0.984;2022-09-21T09:34:02;101771.73;;;19.83;38.96
42411;BME280;28056;51.112;0.984;2022-09-21T09:36:36;101778.43;;;21.31;38.05
42411;BME280;28056;51.112;0.984;2022-09-21T09:39:11;101780.48;;;21.08;39.12
42411;BME280;28056;51.112;0.984;2022-09-21T09:41:51;101782.85;;;22.12;37.12
42411;BME280;28056;51.112;0.984;2022-09-21T09:44:36;101783.34;;;22.51;35.67
42411;BME280;28056;51.112;0.984;2022-09-21T09:47:10;101780.13;;;22.49;37.32
42411;BME280;28056;51.112;0.984;2022-09-21T09:49:56;101777.33;;;21.73;37.81
42411;BME280;28056;51.112;0.984;2022-09-21T09:52:25;101776.83;;;23.10;34.22
42411;BME280;28056;51.112;0.984;2022-09-21T09:54:53;101776.73;;;22.39;37.00
42411;BME280;28056;51.112;0.984;2022-09-21T09:57:27;101773.03;;;22.50;36.63
42411;BME280;28056;51.112;0.984;2022-09-21T09:59:58;101768.02;;;23.16;36.60
42411;BME280;28056;51.112;0.984;2022-09-21T10:02:27;101770.00;;;21.90;36.74
42411;BME280;28056;51.112;0.984;2022-09-21T10:04:57;101768.10;;;22.25;33.88
42411;BME280;28056;51.112;0.984;2022-09-21T10:07:34;101764.33;;;22.56;34.15
42411;BME280;28056;51.112;0.984;2022-09-21T10:10:04;101759.77;;;23.33;33.66
42411;BME280;28056;51.112;0.984;2022-09-21T10:12:48;101762.11;;;22.25;34.83
42411;BME280;28056;51.112;0.984;2022-09-21T10:15:17;101761.06;;;22.57;34.25
42411;BME280;28056;51.112;0.984;2022-09-21T10:17:44;101762.55;;;22.66;34.48
42411;BME280;28056;51.112;0.984;2022-09-21T10:20:16;101758.11;;;21.64;35.94
42411;BME280;28056;51.112;0.984;2022-09-21T10:22:46;101761.90;;;22.25;35.69
42411;BME280;28056;51.112;0.984;2022-09-21T10:25:15;101758.72;;;22.30;36.10
42411;BME280;28056;51.112;0.984;2022-09-21T10:27:47;101756.66;;;22.67;35.07
42411;BME280;28056;51.112;0.984;2022-09-21T10:30:32;101751.05;;;22.30;36.43
42411;BME280;28056;51.112;0.984;2022-09-21T10:33:00;101751.21;;;22.28;35.97
42411;BME280;28056;51.112;0.984;2022-09-21T10:35:27;101751.24;;;22.84;34.86
42411;BME280;28056;51.112;0.984;2022-09-21T10:38:15;101751.72;;;22.06;36.48
42411;BME280;28056;51.112;0.984;2022-09-21T10:40:44;101751.39;;;22.32;35.63
42411;BME280;28056;51.112;0.984;2022-09-21T10:43:24;101748.85;;;21.76;36.27
42411;BME280;28056;51.112;0.984;2022-09-21T10:45:54;101745.28;;;21.64;35.41
42411;BME280;28056;51.112;0.984;2022-09-21T10:48:23;101747.89;;;21.20;36.46
42411;BME280;28056;51.112;0.984;2022-09-21T10:50:54;101744.84;;;20.84;38.54
42411;BME280;28056;51.112;0.984;2022-09-21T10:53:24;101747.96;;;20.14;40.14
42411;BME280;28056;51.112;0.984;2022-09-21T10:55:56;101747.56;;;20.00;40.68
42411;BME280;28056;51.112;0.984;2022-09-21T10:58:25;101748.72;;;20.86;39.10
42411;BME280;28056;51.112;0.984;2022-09-21T11:00:53;101749.22;;;21.02;39.40
42411;BME280;28056;51.112;0.984;2022-09-21T11:03:39;101747.48;;;20.46;40.39
42411;BME280;28056;51.112;0.984;2022-09-21T11:06:20;101742.94;;;21.00;39.01
42411;BME280;28056;51.112;0.984;2022-09-21T11:08:54;101744.41;;;20.46;40.23
42411;BME280;28056;51.112;0.984;2022-09-21T11:11:38;101741.18;;;20.64;40.94
42411;BME280;28056;51.112;0.984;2022-09-21T11:14:21;101740.59;;;20.75;40.43
42411;BME280;28056;51.112;0.984;2022-09-21T11:17:00;101738.66;;;20.51;40.62
42411;BME280;28056;51.112;0.984;2022-09-21T11:19:35;101739.78;;;19.82;41.36
42411;BME280;28056;51.112;0.984;2022-09-21T11:22:07;101733.51;;;20.43;40.53
42411;BME280;28056;51.112;0.984;2022-09-21T11:24:44;101734.57;;;17.81;44.44
42411;BME280;28056;51.112;0.984;2022-09-21T11:27:19;101730.92;;;19.30;42.96
42411;BME280;28056;51.112;0.984;2022-09-21T11:29:56;101728.48;;;19.27;42.70
42411;BME280;28056;51.112;0.984;2022-09-21T11:32:36;101727.71;;;20.22;41.08
42411;BME280;28056;51.112;0.984;2022-09-21T11:35:22;101725.49;;;19.70;41.68
42411;BME280;28056;51.112;0.984;2022-09-21T11:37:59;101725.90;;;19.83;41.76
42411;BME280;28056;51.112;0.984;2022-09-21T11:40:41;101720.72;;;20.52;42.14
42411;BME280;28056;51.112;0.984;2022-09-21T11:43:23;101717.83;;;20.63;40.60
42411;BME280;28056;51.112;0.984;2022-09-21T11:46:02;101721.22;;;21.07;38.83
42411;BME280;28056;51.112;0.984;2022-09-21T11:48:46;101721.51;;;21.31;41.45
42411;BME280;28056;51.112;0.984;2022-09-21T11:51:30;101718.95;;;21.13;39.40
42411;BME280;28056;51.112;0.984;2022-09-21T11:54:34;101718.58;;;21.18;39.17
42411;BME280;28056;51.112;0.984;2022-09-21T11:57:10;101717.36;;;20.96;38.89
42411;BME280;28056;51.112;0.984;2022-09-21T11:59:49;101715.63;;;19.94;40.42
42411;BME280;28056;51.112;0.984;2022-09-21T12:02:43;101710.49;;;20.39;40.75
42411;BME280;28056;51.112;0.984;2022-09-21T12:05:21;101709.84;;;19.28;42.33
42411;BME280;28056;51.112;0.984;2022-09-21T12:08:07;101708.68;;;19.33;42.11
42411;BME280;28056;51.112;0.984;2022-09-21T12:10:48;101708.86;;;18.52;44.51
42411;BME280;28056;51.112;0.984;2022-09-21T12:13:28;101707.94;;;19.48;42.57
42411;BME280;28056;51.112;0.984;2022-09-21T12:16:04;101709.77;;;18.70;44.69
42411;BME280;28056;51.112;0.984;2022-09-21T12:18:40;101710.94;;;18.93;43.48
42411;BME280;28056;51.112;0.984;2022-09-21T12:21:27;101714.33;;;19.97;42.86
42411;BME280;28056;51.112;0.984;2022-09-21T12:24:00;101712.50;;;19.78;42.71
42411;BME280;28056;51.112;0.984;2022-09-21T12:26:35;101709.00;;;19.29;43.62
42411;BME280;28056;51.112;0.984;2022-09-21T12:29:10;101707.90;;;18.68;43.81
42411;BME280;28056;51.112;0.984;2022-09-21T12:31:54;101706.79;;;19.24;43.93
42411;BME280;28056;51.112;0.984;2022-09-21T12:34:26;101706.70;;;19.40;43.69
42411;BME280;28056;51.112;0.984;2022-09-21T12:37:02;101705.36;;;19.33;43.39
42411;BME280;28056;51.112;0.984;2022-09-21T12:39:36;101703.36;;;19.70;43.03
42411;BME280;28056;51.112;0.984;2022-09-21T12:42:12;101698.43;;;18.86;43.79
42411;BME280;28056;51.112;0.984;2022-09-21T12:44:46;101698.25;;;19.05;42.87
42411;BME280;28056;51.112;0.984;2022-09-21T12:47:18;101700.91;;;19.74;41.83
42411;BME280;28056;51.112;0.984;2022-09-21T12:49:47;101700.22;;;19.60;42.55
42411;BME280;28056;51.112;0.984;2022-09-21T12:52:20;101697.75;;;20.24;41.34
42411;BME280;28056;51.112;0.984;2022-09-21T12:54:55;101699.65;;;19.90;41.74
42411;BME280;28056;51.112;0.984;2022-09-21T12:57:31;101700.45;;;19.89;41.66
42411;BME280;28056;51.112;0.984;2022-09-21T13:00:05;101700.58;;;19.91;41.96
42411;BME280;28056;51.112;0.984;2022-09-21T13:02:39;101698.54;;;20.13;41.99
42411;BME280;28056;51.112;0.984;2022-09-21T13:05:13;101697.73;;;19.86;42.00
42411;BME280;28056;51.112;0.984;2022-09-21T13:08:01;101696.20;;;19.08;43.61
42411;BME280;28056;51.112;0.984;2022-09-21T13:10:41;101696.11;;;18.80;43.51
42411;BME280;28056;51.112;0.984;2022-09-21T13:13:18;101696.47;;;18.73;43.84
42411;BME280;28056;51.112;0.984;2022-09-21T13:15:49;101695.32;;;18.66;43.91
42411;BME280;28056;51.112;0.984;2022-09-21T13:18:23;101693.18;;;18.59;44.41